sensor_id;sensor_type;location;lat;lon;timestamp;P1;durP1;ratioP1;P2;durP2;ratioP2
21091;SDS011;10704;42.678;23.288;2022-09-01T00:00:47;23.02;;;16.23;;
21091;SDS011;10704;42.678;23.288;2022-09-01T00:03:17;18.88;;;14.75;;
21091;SDS011;10704;42.678;23.288;2022-09-01T00:05:47;20.33;;;15.02;;
21091;SDS011;10704;42.678;23.288;2022-09-01T00:08:19;20.08;;;15.27;;
21091;SDS011;10704;42.678;23.288;2022-09-01T00:10:46;25.73;;;14.73;;
21091;SDS011;10704;42.678;23.288;2022-09-01T00:13:13;22.10;;;15.32;;
21091;SDS011;10704;42.678;23.288;2022-09-01T00:15:40;21.60;;;15.52;;
21091;SDS011;10704;42.678;23.288;2022-09-01T00:18:06;20.42;;;14.68;;
21091;SDS011;10704;42.678;23.288;2022-09-01T00:20:31;27.15;;;15.35;;
21091;SDS011;10704;42.678;23.288;2022-09-01T00:22:58;20.15;;;14.38;;
21091;SDS011;10704;42.678;23.288;2022-09-01T00:25:24;20.60;;;14.50;;
21091;SDS011;10704;42.678;23.288;2022-09-01T00:27:52;20.98;;;15.88;;
21091;SDS011;10704;42.678;23.288;2022-09-01T00:30:20;19.13;;;14.93;;
21091;SDS011;10704;42.678;23.288;2022-09-01T00:32:46;20.73;;;15.15;;
21091;SDS011;10704;42.678;23.288;2022-09-01T00:35:14;20.90;;;15.65;;
21091;SDS011;10704;42.678;23.288;2022-09-01T00:37:42;22.38;;;15.07;;
21091;SDS011;10704;42.678;23.288;2022-09-01T00:40:08;18.75;;;14.95;;
21091;SDS011;10704;42.678;23.288;2022-09-01T00:42:37;20.58;;;15.07;;
21091;SDS011;10704;42.678;23.288;2022-09-01T00:45:05;23.63;;;14.77;;
21091;SDS011;10704;42.678;23.288;2022-09-01T00:47:33;21.33;;;14.65;;
21091;SDS011;10704;42.678;23.288;2022-09-01T00:50:00;23.73;;;14.85;;
21091;SDS011;10704;42.678;23.288;2022-09-01T00:52:36;23.10;;;15.73;;
21091;SDS011;10704;42.678;23.288;2022-09-01T00:58:04;20.10;;;15.13;;
21091;SDS011;10704;42.678;23.288;2022-09-01T01:00:35;25.13;;;15.48;;
21091;SDS011;10704;42.678;23.288;2022-09-01T01:03:06;21.40;;;15.30;;
21091;SDS011;10704;42.678;23.288;2022-09-01T01:05:41;21.48;;;16.67;;
21091;SDS011;10704;42.678;23.288;2022-09-01T01:08:13;20.80;;;17.67;;
21091;SDS011;10704;42.678;23.288;2022-09-01T01:10:43;26.27;;;17.17;;
21091;SDS011;10704;42.678;23.288;2022-09-01T01:13:11;23.13;;;17.48;;
21091;SDS011;10704;42.678;23.288;2022-09-01T01:15:39;25.83;;;18.55;;
21091;SDS011;10704;42.678;23.288;2022-09-01T01:18:12;25.48;;;19.65;;
21091;SDS011;10704;42.678;23.288;2022-09-01T01:20:40;27.67;;;20.00;;
21091;SDS011;10704;42.678;23.288;2022-09-01T01:23:38;28.52;;;20.10;;
21091;SDS011;10704;42.678;23.288;2022-09-01T01:26:09;26.02;;;19.10;;
21091;SDS011;10704;42.678;23.288;2022-09-01T01:28:39;25.63;;;17.77;;
21091;SDS011;10704;42.678;23.288;2022-09-01T01:31:12;25.90;;;18.25;;
21091;SDS011;10704;42.678;23.288;2022-09-01T01:33:49;30.95;;;19.40;;
21091;SDS011;10704;42.678;23.288;2022-09-01T01:38:51;27.58;;;19.25;;
21091;SDS011;10704;42.678;23.288;2022-09-01T01:41:18;34.85;;;20.35;;
21091;SDS011;10704;42.678;23.288;2022-09-01T01:43:44;25.83;;;19.50;;
21091;SDS011;10704;42.678;23.288;2022-09-01T01:46:12;26.30;;;18.98;;
21091;SDS011;10704;42.678;23.288;2022-09-01T01:48:39;29.92;;;19.75;;
21091;SDS011;10704;42.678;23.288;2022-09-01T01:51:07;28.45;;;18.88;;
21091;SDS011;10704;42.678;23.288;2022-09-01T01:53:36;25.08;;;19.65;;
21091;SDS011;10704;42.678;23.288;2022-09-01T01:56:03;26.75;;;19.92;;
21091;SDS011;10704;42.678;23.288;2022-09-01T01:58:33;35.78;;;20.35;;
21091;SDS011;10704;42.678;23.288;2022-09-01T02:01:05;27.00;;;20.20;;
21091;SDS011;10704;42.678;23.288;2022-09-01T02:03:35;28.65;;;19.80;;
21091;SDS011;10704;42.678;23.288;2022-09-01T02:06:03;29.27;;;19.50;;
21091;SDS011;10704;42.678;23.288;2022-09-01T02:08:34;27.60;;;20.17;;
21091;SDS011;10704;42.678;23.288;2022-09-01T02:11:02;26.75;;;20.35;;
21091;SDS011;10704;42.678;23.288;2022-09-01T02:13:30;28.20;;;20.08;;
21091;SDS011;10704;42.678;23.288;2022-09-01T02:16:01;26.42;;;20.25;;
21091;SDS011;10704;42.678;23.288;2022-09-01T02:18:35;29.73;;;20.90;;
21091;SDS011;10704;42.678;23.288;2022-09-01T02:21:07;28.55;;;20.80;;
21091;SDS011;10704;42.678;23.288;2022-09-01T02:23:36;29.10;;;20.80;;
21091;SDS011;10704;42.678;23.288;2022-09-01T02:26:03;26.05;;;20.77;;
21091;SDS011;10704;42.678;23.288;2022-09-01T02:28:35;27.33;;;19.85;;
21091;SDS011;10704;42.678;23.288;2022-09-01T02:31:04;27.23;;;19.13;;
21091;SDS011;10704;42.678;23.288;2022-09-01T02:33:33;25.95;;;18.38;;
21091;SDS011;10704;42.678;23.288;2022-09-01T02:36:03;27.73;;;18.45;;
21091;SDS011;10704;42.678;23.288;2022-09-01T02:38:32;23.00;;;17.50;;
21091;SDS011;10704;42.678;23.288;2022-09-01T02:41:00;23.08;;;16.15;;
21091;SDS011;10704;42.678;23.288;2022-09-01T02:43:27;26.85;;;18.08;;
21091;SDS011;10704;42.678;23.288;2022-09-01T02:45:56;21.88;;;17.17;;
21091;SDS011;10704;42.678;23.288;2022-09-01T02:48:29;22.30;;;17.88;;
21091;SDS011;10704;42.678;23.288;2022-09-01T02:51:04;24.30;;;17.75;;
21091;SDS011;10704;42.678;23.288;2022-09-01T02:53:32;25.90;;;18.00;;
21091;SDS011;10704;42.678;23.288;2022-09-01T02:56:00;22.85;;;17.33;;
21091;SDS011;10704;42.678;23.288;2022-09-01T02:58:28;24.35;;;18.38;;
21091;SDS011;10704;42.678;23.288;2022-09-01T03:00:57;25.77;;;17.90;;
21091;SDS011;10704;42.678;23.288;2022-09-01T03:03:24;26.45;;;19.33;;
21091;SDS011;10704;42.678;23.288;2022-09-01T03:05:51;26.83;;;17.77;;
21091;SDS011;10704;42.678;23.288;2022-09-01T03:08:22;28.27;;;18.52;;
21091;SDS011;10704;42.678;23.288;2022-09-01T03:10:49;25.80;;;20.00;;
21091;SDS011;10704;42.678;23.288;2022-09-01T03:13:22;25.90;;;19.27;;
21091;SDS011;10704;42.678;23.288;2022-09-01T03:15:48;27.02;;;20.02;;
21091;SDS011;10704;42.678;23.288;2022-09-01T03:18:14;22.90;;;18.42;;
21091;SDS011;10704;42.678;23.288;2022-09-01T03:20:43;25.08;;;17.73;;
21091;SDS011;10704;42.678;23.288;2022-09-01T03:23:12;25.40;;;17.35;;
21091;SDS011;10704;42.678;23.288;2022-09-01T03:25:42;23.67;;;16.92;;
21091;SDS011;10704;42.678;23.288;2022-09-01T03:28:09;25.83;;;18.60;;
21091;SDS011;10704;42.678;23.288;2022-09-01T03:30:38;23.65;;;17.83;;
21091;SDS011;10704;42.678;23.288;2022-09-01T03:33:09;25.88;;;18.70;;
21091;SDS011;10704;42.678;23.288;2022-09-01T03:35:35;27.30;;;17.95;;
21091;SDS011;10704;42.678;23.288;2022-09-01T03:38:02;23.10;;;18.08;;
21091;SDS011;10704;42.678;23.288;2022-09-01T03:40:29;23.55;;;18.00;;
21091;SDS011;10704;42.678;23.288;2022-09-01T03:43:01;21.73;;;16.70;;
21091;SDS011;10704;42.678;23.288;2022-09-01T03:45:29;26.67;;;17.08;;
21091;SDS011;10704;42.678;23.288;2022-09-01T03:48:03;24.00;;;18.23;;
21091;SDS011;10704;42.678;23.288;2022-09-01T03:50:34;24.30;;;17.17;;
21091;SDS011;10704;42.678;23.288;2022-09-01T03:53:08;26.20;;;17.67;;
21091;SDS011;10704;42.678;23.288;2022-09-01T03:55:34;22.75;;;17.52;;
21091;SDS011;10704;42.678;23.288;2022-09-01T03:58:04;27.35;;;18.08;;
21091;SDS011;10704;42.678;23.288;2022-09-01T04:00:36;26.63;;;18.75;;
21091;SDS011;10704;42.678;23.288;2022-09-01T04:03:07;33.63;;;20.10;;
21091;SDS011;10704;42.678;23.288;2022-09-01T04:05:38;30.77;;;22.67;;
21091;SDS011;10704;42.678;23.288;2022-09-01T04:08:07;34.20;;;22.38;;
21091;SDS011;10704;42.678;23.288;2022-09-01T04:10:41;35.38;;;22.40;;
21091;SDS011;10704;42.678;23.288;2022-09-01T04:13:18;32.83;;;22.88;;
21091;SDS011;10704;42.678;23.288;2022-09-01T04:15:47;34.67;;;22.58;;
21091;SDS011;10704;42.678;23.288;2022-09-01T04:18:14;32.78;;;22.40;;
21091;SDS011;10704;42.678;23.288;2022-09-01T04:20:49;32.78;;;22.75;;
21091;SDS011;10704;42.678;23.288;2022-09-01T04:25:56;32.65;;;23.02;;
21091;SDS011;10704;42.678;23.288;2022-09-01T04:28:29;33.03;;;24.40;;
21091;SDS011;10704;42.678;23.288;2022-09-01T04:30:58;35.67;;;23.27;;
21091;SDS011;10704;42.678;23.288;2022-09-01T04:33:31;37.17;;;24.13;;
21091;SDS011;10704;42.678;23.288;2022-09-01T04:38:52;33.92;;;23.25;;
21091;SDS011;10704;42.678;23.288;2022-09-01T04:41:20;31.60;;;22.38;;
21091;SDS011;10704;42.678;23.288;2022-09-01T04:43:47;38.08;;;25.33;;
21091;SDS011;10704;42.678;23.288;2022-09-01T04:46:16;35.25;;;23.00;;
21091;SDS011;10704;42.678;23.288;2022-09-01T04:48:45;42.15;;;23.77;;
21091;SDS011;10704;42.678;23.288;2022-09-01T04:51:13;33.10;;;23.88;;
21091;SDS011;10704;42.678;23.288;2022-09-01T04:53:50;35.60;;;23.88;;
21091;SDS011;10704;42.678;23.288;2022-09-01T04:56:17;30.90;;;22.58;;
21091;SDS011;10704;42.678;23.288;2022-09-01T04:59:07;31.55;;;23.27;;
21091;SDS011;10704;42.678;23.288;2022-09-01T05:01:36;32.95;;;24.02;;
21091;SDS011;10704;42.678;23.288;2022-09-01T05:04:24;37.45;;;25.10;;
21091;SDS011;10704;42.678;23.288;2022-09-01T05:06:53;32.70;;;23.13;;
21091;SDS011;10704;42.678;23.288;2022-09-01T05:09:31;30.75;;;23.52;;
21091;SDS011;10704;42.678;23.288;2022-09-01T05:12:29;35.95;;;24.65;;
21091;SDS011;10704;42.678;23.288;2022-09-01T05:14:55;32.20;;;22.60;;
21091;SDS011;10704;42.678;23.288;2022-09-01T05:17:21;31.77;;;22.98;;
21091;SDS011;10704;42.678;23.288;2022-09-01T05:19:50;33.05;;;22.35;;
21091;SDS011;10704;42.678;23.288;2022-09-01T05:22:18;32.55;;;21.67;;
21091;SDS011;10704;42.678;23.288;2022-09-01T05:24:58;33.25;;;22.38;;
21091;SDS011;10704;42.678;23.288;2022-09-01T05:27:38;34.42;;;22.52;;
21091;SDS011;10704;42.678;23.288;2022-09-01T05:30:06;26.52;;;21.02;;
21091;SDS011;10704;42.678;23.288;2022-09-01T05:32:33;30.00;;;20.83;;
21091;SDS011;10704;42.678;23.288;2022-09-01T05:35:04;27.17;;;20.25;;
21091;SDS011;10704;42.678;23.288;2022-09-01T05:37:35;31.13;;;23.02;;
21091;SDS011;10704;42.678;23.288;2022-09-01T05:40:04;32.90;;;22.05;;
21091;SDS011;10704;42.678;23.288;2022-09-01T05:42:31;31.48;;;23.00;;
21091;SDS011;10704;42.678;23.288;2022-09-01T05:44:58;32.22;;;22.70;;
21091;SDS011;10704;42.678;23.288;2022-09-01T05:47:26;32.63;;;22.10;;
21091;SDS011;10704;42.678;23.288;2022-09-01T05:49:53;35.80;;;23.77;;
21091;SDS011;10704;42.678;23.288;2022-09-01T05:52:19;39.00;;;23.25;;
21091;SDS011;10704;42.678;23.288;2022-09-01T05:54:50;33.58;;;22.45;;
21091;SDS011;10704;42.678;23.288;2022-09-01T05:57:17;36.80;;;23.90;;
21091;SDS011;10704;42.678;23.288;2022-09-01T05:59:44;33.33;;;23.42;;
21091;SDS011;10704;42.678;23.288;2022-09-01T06:05:05;31.13;;;23.10;;
21091;SDS011;10704;42.678;23.288;2022-09-01T06:07:31;30.83;;;22.75;;
21091;SDS011;10704;42.678;23.288;2022-09-01T06:09:59;30.70;;;23.75;;
21091;SDS011;10704;42.678;23.288;2022-09-01T06:12:25;34.33;;;23.77;;
21091;SDS011;10704;42.678;23.288;2022-09-01T06:14:54;32.75;;;23.60;;
21091;SDS011;10704;42.678;23.288;2022-09-01T06:17:22;37.60;;;25.25;;
21091;SDS011;10704;42.678;23.288;2022-09-01T06:19:50;35.45;;;25.80;;
21091;SDS011;10704;42.678;23.288;2022-09-01T06:22:18;34.95;;;25.67;;
21091;SDS011;10704;42.678;23.288;2022-09-01T06:24:45;37.25;;;26.60;;
21091;SDS011;10704;42.678;23.288;2022-09-01T06:27:12;34.45;;;26.45;;
21091;SDS011;10704;42.678;23.288;2022-09-01T06:29:43;36.35;;;26.10;;
21091;SDS011;10704;42.678;23.288;2022-09-01T06:32:10;40.17;;;25.88;;
21091;SDS011;10704;42.678;23.288;2022-09-01T06:34:38;42.13;;;27.77;;
21091;SDS011;10704;42.678;23.288;2022-09-01T06:37:07;35.33;;;27.00;;
21091;SDS011;10704;42.678;23.288;2022-09-01T06:39:34;34.75;;;25.98;;
21091;SDS011;10704;42.678;23.288;2022-09-01T06:42:00;36.33;;;27.75;;
21091;SDS011;10704;42.678;23.288;2022-09-01T06:44:38;45.22;;;29.52;;
21091;SDS011;10704;42.678;23.288;2022-09-01T06:47:07;39.22;;;28.65;;
21091;SDS011;10704;42.678;23.288;2022-09-01T06:49:33;40.63;;;28.50;;
21091;SDS011;10704;42.678;23.288;2022-09-01T06:52:07;39.97;;;28.27;;
21091;SDS011;10704;42.678;23.288;2022-09-01T06:54:33;36.03;;;26.73;;
21091;SDS011;10704;42.678;23.288;2022-09-01T06:57:00;38.10;;;28.65;;
21091;SDS011;10704;42.678;23.288;2022-09-01T06:59:28;41.20;;;27.48;;
21091;SDS011;10704;42.678;23.288;2022-09-01T07:02:00;38.88;;;29.25;;
21091;SDS011;10704;42.678;23.288;2022-09-01T07:05:00;47.13;;;29.00;;
21091;SDS011;10704;42.678;23.288;2022-09-01T07:07:28;45.92;;;28.73;;
21091;SDS011;10704;42.678;23.288;2022-09-01T07:10:02;42.72;;;27.67;;
21091;SDS011;10704;42.678;23.288;2022-09-01T07:12:38;42.65;;;27.52;;
21091;SDS011;10704;42.678;23.288;2022-09-01T07:15:10;40.08;;;26.80;;
21091;SDS011;10704;42.678;23.288;2022-09-01T07:17:45;46.03;;;28.75;;
21091;SDS011;10704;42.678;23.288;2022-09-01T07:20:19;37.63;;;27.45;;
21091;SDS011;10704;42.678;23.288;2022-09-01T07:22:47;44.17;;;29.00;;
21091;SDS011;10704;42.678;23.288;2022-09-01T07:25:13;38.63;;;27.52;;
21091;SDS011;10704;42.678;23.288;2022-09-01T07:27:58;42.15;;;29.00;;
21091;SDS011;10704;42.678;23.288;2022-09-01T07:30:24;44.33;;;30.23;;
21091;SDS011;10704;42.678;23.288;2022-09-01T07:32:51;43.25;;;29.23;;
21091;SDS011;10704;42.678;23.288;2022-09-01T07:35:19;40.58;;;29.55;;
21091;SDS011;10704;42.678;23.288;2022-09-01T07:37:47;42.83;;;28.20;;
21091;SDS011;10704;42.678;23.288;2022-09-01T07:40:17;49.35;;;30.75;;
21091;SDS011;10704;42.678;23.288;2022-09-01T07:42:53;40.35;;;28.73;;
21091;SDS011;10704;42.678;23.288;2022-09-01T07:45:42;46.85;;;29.38;;
21091;SDS011;10704;42.678;23.288;2022-09-01T07:48:11;40.58;;;29.20;;
21091;SDS011;10704;42.678;23.288;2022-09-01T07:50:44;43.28;;;29.40;;
21091;SDS011;10704;42.678;23.288;2022-09-01T07:53:14;39.72;;;28.95;;
21091;SDS011;10704;42.678;23.288;2022-09-01T07:55:45;38.60;;;28.52;;
21091;SDS011;10704;42.678;23.288;2022-09-01T07:58:14;42.10;;;30.15;;
21091;SDS011;10704;42.678;23.288;2022-09-01T08:00:43;41.38;;;29.25;;
21091;SDS011;10704;42.678;23.288;2022-09-01T08:03:11;45.50;;;30.15;;
21091;SDS011;10704;42.678;23.288;2022-09-01T08:05:37;38.65;;;28.88;;
21091;SDS011;10704;42.678;23.288;2022-09-01T08:08:03;45.97;;;29.80;;
21091;SDS011;10704;42.678;23.288;2022-09-01T08:10:31;48.00;;;30.33;;
21091;SDS011;10704;42.678;23.288;2022-09-01T08:12:58;42.47;;;28.65;;
21091;SDS011;10704;42.678;23.288;2022-09-01T08:15:25;41.10;;;28.40;;
21091;SDS011;10704;42.678;23.288;2022-09-01T08:17:51;38.40;;;28.42;;
21091;SDS011;10704;42.678;23.288;2022-09-01T08:20:17;37.88;;;28.52;;
21091;SDS011;10704;42.678;23.288;2022-09-01T08:23:06;37.00;;;27.48;;
21091;SDS011;10704;42.678;23.288;2022-09-01T08:25:35;35.95;;;26.95;;
21091;SDS011;10704;42.678;23.288;2022-09-01T08:28:02;41.75;;;27.90;;
21091;SDS011;10704;42.678;23.288;2022-09-01T08:30:29;33.90;;;25.23;;
21091;SDS011;10704;42.678;23.288;2022-09-01T08:33:00;38.83;;;26.95;;
21091;SDS011;10704;42.678;23.288;2022-09-01T08:35:28;36.72;;;24.40;;
21091;SDS011;10704;42.678;23.288;2022-09-01T08:37:55;35.72;;;24.30;;
21091;SDS011;10704;42.678;23.288;2022-09-01T08:40:24;33.67;;;23.77;;
21091;SDS011;10704;42.678;23.288;2022-09-01T08:45:49;30.83;;;22.08;;
21091;SDS011;10704;42.678;23.288;2022-09-01T08:48:32;29.10;;;22.90;;
21091;SDS011;10704;42.678;23.288;2022-09-01T08:56:26;29.23;;;20.50;;
21091;SDS011;10704;42.678;23.288;2022-09-01T08:58:54;30.20;;;20.45;;
21091;SDS011;10704;42.678;23.288;2022-09-01T09:01:41;28.83;;;20.67;;
21091;SDS011;10704;42.678;23.288;2022-09-01T09:10:14;20.23;;;17.70;;
21091;SDS011;10704;42.678;23.288;2022-09-01T09:20:43;24.17;;;15.73;;
21091;SDS011;10704;42.678;23.288;2022-09-01T09:23:20;23.45;;;18.23;;
21091;SDS011;10704;42.678;23.288;2022-09-01T09:25:53;23.98;;;16.58;;
21091;SDS011;10704;42.678;23.288;2022-09-01T09:28:19;21.60;;;17.00;;
21091;SDS011;10704;42.678;23.288;2022-09-01T09:30:45;21.95;;;17.10;;
21091;SDS011;10704;42.678;23.288;2022-09-01T09:33:31;24.75;;;17.52;;
21091;SDS011;10704;42.678;23.288;2022-09-01T09:36:16;26.42;;;18.35;;
21091;SDS011;10704;42.678;23.288;2022-09-01T09:38:44;22.85;;;17.10;;
21091;SDS011;10704;42.678;23.288;2022-09-01T09:41:18;18.88;;;15.25;;
21091;SDS011;10704;42.678;23.288;2022-09-01T09:46:35;20.02;;;16.67;;
21091;SDS011;10704;42.678;23.288;2022-09-01T09:51:35;24.15;;;17.88;;
21091;SDS011;10704;42.678;23.288;2022-09-01T09:56:45;22.05;;;14.48;;
21091;SDS011;10704;42.678;23.288;2022-09-01T09:59:27;20.35;;;14.30;;
21091;SDS011;10704;42.678;23.288;2022-09-01T10:01:56;19.80;;;14.25;;
21091;SDS011;10704;42.678;23.288;2022-09-01T10:04:31;20.55;;;15.13;;
21091;SDS011;10704;42.678;23.288;2022-09-01T10:06:58;19.05;;;14.00;;
21091;SDS011;10704;42.678;23.288;2022-09-01T10:11:51;25.90;;;14.32;;
21091;SDS011;10704;42.678;23.288;2022-09-01T10:14:32;17.38;;;13.50;;
21091;SDS011;10704;42.678;23.288;2022-09-01T10:17:08;17.27;;;13.40;;
21091;SDS011;10704;42.678;23.288;2022-09-01T10:19:39;17.85;;;13.00;;
21091;SDS011;10704;42.678;23.288;2022-09-01T10:22:13;19.13;;;12.00;;
21091;SDS011;10704;42.678;23.288;2022-09-01T10:24:40;14.68;;;11.70;;
21091;SDS011;10704;42.678;23.288;2022-09-01T10:27:07;16.42;;;12.73;;
21091;SDS011;10704;42.678;23.288;2022-09-01T10:32:19;15.98;;;11.23;;
21091;SDS011;10704;42.678;23.288;2022-09-01T10:34:48;17.02;;;12.75;;
21091;SDS011;10704;42.678;23.288;2022-09-01T10:37:15;26.60;;;19.08;;
21091;SDS011;10704;42.678;23.288;2022-09-01T10:42:46;18.73;;;13.52;;
21091;SDS011;10704;42.678;23.288;2022-09-01T10:45:39;26.83;;;16.38;;
21091;SDS011;10704;42.678;23.288;2022-09-01T10:50:55;23.75;;;16.27;;
21091;SDS011;10704;42.678;23.288;2022-09-01T10:53:42;19.95;;;14.68;;
21091;SDS011;10704;42.678;23.288;2022-09-01T10:56:55;27.40;;;18.65;;
21091;SDS011;10704;42.678;23.288;2022-09-01T11:02:02;19.77;;;14.25;;
21091;SDS011;10704;42.678;23.288;2022-09-01T11:07:04;18.52;;;13.80;;
21091;SDS011;10704;42.678;23.288;2022-09-01T11:12:57;17.80;;;13.30;;
21091;SDS011;10704;42.678;23.288;2022-09-01T11:15:47;22.63;;;15.15;;
21091;SDS011;10704;42.678;23.288;2022-09-01T11:18:15;19.35;;;14.70;;
21091;SDS011;10704;42.678;23.288;2022-09-01T11:20:50;17.50;;;13.88;;
21091;SDS011;10704;42.678;23.288;2022-09-01T11:23:21;21.00;;;14.40;;
21091;SDS011;10704;42.678;23.288;2022-09-01T11:25:51;23.55;;;13.50;;
21091;SDS011;10704;42.678;23.288;2022-09-01T11:44:17;20.70;;;12.70;;
21091;SDS011;10704;42.678;23.288;2022-09-01T11:47:04;18.67;;;11.38;;
21091;SDS011;10704;42.678;23.288;2022-09-01T11:49:36;15.57;;;10.98;;
21091;SDS011;10704;42.678;23.288;2022-09-01T11:52:16;17.17;;;11.57;;
21091;SDS011;10704;42.678;23.288;2022-09-01T11:54:43;18.58;;;11.63;;
21091;SDS011;10704;42.678;23.288;2022-09-01T11:57:21;16.85;;;12.07;;
21091;SDS011;10704;42.678;23.288;2022-09-01T11:59:47;19.85;;;12.38;;
21091;SDS011;10704;42.678;23.288;2022-09-01T12:02:30;15.82;;;10.85;;
21091;SDS011;10704;42.678;23.288;2022-09-01T12:04:59;14.70;;;10.25;;
21091;SDS011;10704;42.678;23.288;2022-09-01T12:07:37;15.02;;;10.63;;
21091;SDS011;10704;42.678;23.288;2022-09-01T12:10:17;14.00;;;11.88;;
21091;SDS011;10704;42.678;23.288;2022-09-01T12:13:07;12.65;;;10.95;;
21091;SDS011;10704;42.678;23.288;2022-09-01T12:15:36;13.50;;;11.10;;
21091;SDS011;10704;42.678;23.288;2022-09-01T12:18:11;16.05;;;11.13;;
21091;SDS011;10704;42.678;23.288;2022-09-01T12:20:43;15.55;;;11.02;;
21091;SDS011;10704;42.678;23.288;2022-09-01T12:25:58;15.98;;;11.73;;
21091;SDS011;10704;42.678;23.288;2022-09-01T12:28:36;18.13;;;12.00;;
21091;SDS011;10704;42.678;23.288;2022-09-01T12:31:06;16.27;;;12.23;;
21091;SDS011;10704;42.678;23.288;2022-09-01T12:33:37;17.60;;;11.65;;
21091;SDS011;10704;42.678;23.288;2022-09-01T12:36:12;20.63;;;13.23;;
21091;SDS011;10704;42.678;23.288;2022-09-01T12:38:48;14.20;;;11.55;;
21091;SDS011;10704;42.678;23.288;2022-09-01T12:46:56;14.90;;;12.48;;
21091;SDS011;10704;42.678;23.288;2022-09-01T12:49:48;17.15;;;12.68;;
21091;SDS011;10704;42.678;23.288;2022-09-01T12:54:47;16.08;;;12.05;;
21091;SDS011;10704;42.678;23.288;2022-09-01T12:57:50;18.05;;;12.57;;
21091;SDS011;10704;42.678;23.288;2022-09-01T13:00:18;14.82;;;11.93;;
21091;SDS011;10704;42.678;23.288;2022-09-01T13:03:11;16.05;;;12.05;;
21091;SDS011;10704;42.678;23.288;2022-09-01T13:05:39;16.75;;;12.90;;
21091;SDS011;10704;42.678;23.288;2022-09-01T13:08:16;17.92;;;12.60;;
21091;SDS011;10704;42.678;23.288;2022-09-01T13:10:48;20.25;;;12.63;;
21091;SDS011;10704;42.678;23.288;2022-09-01T13:13:17;16.70;;;12.18;;
21091;SDS011;10704;42.678;23.288;2022-09-01T13:15:48;18.50;;;12.02;;
21091;SDS011;10704;42.678;23.288;2022-09-01T13:18:16;18.02;;;13.25;;
21091;SDS011;10704;42.678;23.288;2022-09-01T13:20:43;18.98;;;12.63;;
21091;SDS011;10704;42.678;23.288;2022-09-01T13:23:09;16.00;;;12.60;;
21091;SDS011;10704;42.678;23.288;2022-09-01T13:25:36;20.08;;;13.38;;
21091;SDS011;10704;42.678;23.288;2022-09-01T13:28:04;18.52;;;13.05;;
21091;SDS011;10704;42.678;23.288;2022-09-01T13:30:32;16.58;;;12.48;;
21091;SDS011;10704;42.678;23.288;2022-09-01T13:32:58;16.98;;;12.55;;
21091;SDS011;10704;42.678;23.288;2022-09-01T13:35:25;18.73;;;12.57;;
21091;SDS011;10704;42.678;23.288;2022-09-01T13:37:51;15.85;;;12.77;;
21091;SDS011;10704;42.678;23.288;2022-09-01T13:40:17;19.00;;;12.63;;
21091;SDS011;10704;42.678;23.288;2022-09-01T13:42:45;18.67;;;13.63;;
21091;SDS011;10704;42.678;23.288;2022-09-01T13:45:14;21.85;;;14.10;;
21091;SDS011;10704;42.678;23.288;2022-09-01T13:47:43;18.60;;;13.20;;
21091;SDS011;10704;42.678;23.288;2022-09-01T13:50:11;15.93;;;12.80;;
21091;SDS011;10704;42.678;23.288;2022-09-01T13:52:40;17.55;;;12.90;;
21091;SDS011;10704;42.678;23.288;2022-09-01T13:55:11;20.20;;;12.98;;
21091;SDS011;10704;42.678;23.288;2022-09-01T13:57:40;21.48;;;13.20;;
21091;SDS011;10704;42.678;23.288;2022-09-01T14:00:07;19.75;;;14.05;;
21091;SDS011;10704;42.678;23.288;2022-09-01T14:02:36;18.23;;;13.52;;
21091;SDS011;10704;42.678;23.288;2022-09-01T14:05:13;21.13;;;11.90;;
21091;SDS011;10704;42.678;23.288;2022-09-01T14:07:40;14.50;;;11.50;;
21091;SDS011;10704;42.678;23.288;2022-09-01T14:10:06;16.98;;;11.55;;
21091;SDS011;10704;42.678;23.288;2022-09-01T14:12:33;15.43;;;11.55;;
21091;SDS011;10704;42.678;23.288;2022-09-01T14:14:59;17.35;;;11.88;;
21091;SDS011;10704;42.678;23.288;2022-09-01T14:17:25;13.07;;;11.30;;
21091;SDS011;10704;42.678;23.288;2022-09-01T14:19:51;21.48;;;11.80;;
21091;SDS011;10704;42.678;23.288;2022-09-01T14:22:17;18.17;;;12.32;;
21091;SDS011;10704;42.678;23.288;2022-09-01T14:24:43;17.65;;;12.38;;
21091;SDS011;10704;42.678;23.288;2022-09-01T14:27:09;22.90;;;12.68;;
21091;SDS011;10704;42.678;23.288;2022-09-01T14:29:35;18.45;;;12.38;;
21091;SDS011;10704;42.678;23.288;2022-09-01T14:32:02;18.52;;;12.52;;
21091;SDS011;10704;42.678;23.288;2022-09-01T14:34:28;17.30;;;12.93;;
21091;SDS011;10704;42.678;23.288;2022-09-01T14:36:55;15.10;;;12.73;;
21091;SDS011;10704;42.678;23.288;2022-09-01T14:39:22;15.57;;;13.20;;
21091;SDS011;10704;42.678;23.288;2022-09-01T14:41:49;16.30;;;11.85;;
21091;SDS011;10704;42.678;23.288;2022-09-01T14:44:14;17.67;;;13.85;;
21091;SDS011;10704;42.678;23.288;2022-09-01T14:46:40;16.95;;;13.15;;
21091;SDS011;10704;42.678;23.288;2022-09-01T14:49:07;20.08;;;13.70;;
21091;SDS011;10704;42.678;23.288;2022-09-01T14:51:35;16.55;;;12.77;;
21091;SDS011;10704;42.678;23.288;2022-09-01T14:54:02;19.00;;;13.63;;
21091;SDS011;10704;42.678;23.288;2022-09-01T14:56:29;16.95;;;12.43;;
21091;SDS011;10704;42.678;23.288;2022-09-01T14:58:55;17.92;;;13.15;;
21091;SDS011;10704;42.678;23.288;2022-09-01T15:01:25;14.18;;;11.20;;
21091;SDS011;10704;42.678;23.288;2022-09-01T15:03:52;14.18;;;11.60;;
21091;SDS011;10704;42.678;23.288;2022-09-01T15:06:19;14.15;;;12.20;;
21091;SDS011;10704;42.678;23.288;2022-09-01T15:08:49;17.33;;;12.38;;
21091;SDS011;10704;42.678;23.288;2022-09-01T15:11:16;13.20;;;10.93;;
21091;SDS011;10704;42.678;23.288;2022-09-01T15:13:43;15.93;;;12.00;;
21091;SDS011;10704;42.678;23.288;2022-09-01T15:16:17;18.83;;;12.77;;
21091;SDS011;10704;42.678;23.288;2022-09-01T15:18:49;20.15;;;12.57;;
21091;SDS011;10704;42.678;23.288;2022-09-01T15:21:17;16.38;;;12.35;;
21091;SDS011;10704;42.678;23.288;2022-09-01T15:23:48;17.60;;;12.45;;
21091;SDS011;10704;42.678;23.288;2022-09-01T15:26:15;19.95;;;11.75;;
21091;SDS011;10704;42.678;23.288;2022-09-01T15:28:45;19.95;;;13.18;;
21091;SDS011;10704;42.678;23.288;2022-09-01T15:31:12;15.65;;;13.30;;
21091;SDS011;10704;42.678;23.288;2022-09-01T15:33:40;20.42;;;12.75;;
21091;SDS011;10704;42.678;23.288;2022-09-01T15:36:07;15.65;;;12.23;;
21091;SDS011;10704;42.678;23.288;2022-09-01T15:38:33;14.40;;;12.40;;
21091;SDS011;10704;42.678;23.288;2022-09-01T15:41:00;20.00;;;12.73;;
21091;SDS011;10704;42.678;23.288;2022-09-01T15:43:26;17.60;;;13.75;;
21091;SDS011;10704;42.678;23.288;2022-09-01T15:45:53;18.55;;;14.07;;
21091;SDS011;10704;42.678;23.288;2022-09-01T15:48:22;23.15;;;14.85;;
21091;SDS011;10704;42.678;23.288;2022-09-01T15:50:49;35.85;;;24.10;;
21091;SDS011;10704;42.678;23.288;2022-09-01T15:53:15;19.20;;;14.25;;
21091;SDS011;10704;42.678;23.288;2022-09-01T15:55:44;19.52;;;14.18;;
21091;SDS011;10704;42.678;23.288;2022-09-01T15:58:13;16.13;;;13.20;;